VVTSMMPR

Guest
Details From VVTS - Tansonnhat Intl
To MMPR - Licenciado Gustavo Diaz Ordaz Intl
Flight Number -
Tags Generated
Created
Modified
Stats Distance 8,142 nm / 15,078 km
Max Altitude 0 ft / 0 m
Waypoints 7
Social Downloads 0
Likes 0
Share VATSIM

Download

Looking for another format? Having issues loading an existing format? Contact us
Advertisement - Login to hide

Notes

Generated

Route

VVTS KU KIKIT HKC80 FLUTE GOC25 MMPR

ID Type Via Altitude Latitude Longitude Leg Dist Tot Dist Heading (true) Name
O VVTS APT - 0 ft / 0 m 10.81502˚ 106.63712˚ - 0 nm - -
KU NDB - 0 ft / 0 m 23.58417˚ 120.38917˚ 1098 nm 1098 nm 44° / 48° CHIAYI NDB
KIKIT FIX - 0 ft / 0 m 25.88167˚ 123.59167˚ 222 nm 1321 nm 51° / 52° -
HKC80 FIX - 0 ft / 0 m 30.45689˚ 130.00509˚ 436 nm 1757 nm 50° / 53° -
FLUTE FIX - 0 ft / 0 m 34.53858˚ 136.96373˚ 429 nm 2187 nm 53° / 57° -
GOC25 FIX - 0 ft / 0 m 36.48662˚ 140.75729˚ 219 nm 2406 nm 57° / 59° -
O MMPR APT - 0 ft / 0 m 20.67053˚ -105.26511˚ 5735 nm 8141 nm 59° / 132° -

Altitude Profile

Advertisement - Login to hide

Weather


0- 5 10 15 20 25 30 35+ Temperature / ° C

Clouds and Precipitation
Forecast for 2018-05-27 12:00 UTC. Updated 3 hours ago

Ground ~20,000 ft ~40,000 ft Winds

VVTS

Details ICAO VVTS (SGN)
Name TAN SON NHAT INTL
Region Vietnam
Timezone Asia/Ho_Chi_Minh (UTC+7.0)
Stats Elevation 33 ft / 10 m (AMSL)
Location 10.818750° 106.651735°
Runways 2
Magnetic Variation 0.500° W

METAR

VVTS 271430Z 34005KT 270V360 8000 FEW015 BKN050 26/26 Q1009 NOSIG

Decode

TAF

TAF VVTS 271100Z 2712/2818 20006KT 9999 SCT015 SCT040 TEMPO 2712/2714 5000 RA BKN015 BKN040 TEMPO 2807/2812 12015G28KT 3000 TSRA BKN015 SCT017CB

Decode

Departure Runways

ID Width Length Bearing (true) Bearing (mag) Surface Threshold Offset Overrun Length
07L 148 ft / 45 m 9,998 ft / 3,047 m 69.00° 69.50° Asphalt 0 ft / 0 m 1,040 ft / 317 m
07R 148 ft / 45 m 12,617 ft / 3,846 m 68.90° 69.40° Concrete 2,543 ft / 775 m 863 ft / 263 m
25L 148 ft / 45 m 12,617 ft / 3,846 m 248.90° 249.40° Concrete 0 ft / 0 m 1,027 ft / 313 m
25R 148 ft / 45 m 9,998 ft / 3,047 m 249.00° 249.50° Asphalt 0 ft / 0 m 1,053 ft / 321 m

MMPR

Details ICAO MMPR (PVR)
Name LICENCIADO GUSTAVO DIAZ ORDAZ INTL
Region Mexico
Timezone America/Mexico_City (UTC-5.0)
Stats Elevation 23 ft / 7 m (AMSL)
Location 20.680069° -105.254153°
Runways 1
Magnetic Variation 6.846° E

METAR

MMPR 271347Z 36003KT 10SM SCT020 26/23 A2981 RMK 8/500 LWRCLDS/ALQDS

Decode

TAF

Not found

Destination Runways

ID Width Length Bearing (true) Bearing (mag) Surface Threshold Offset Overrun Length
04 148 ft / 45 m 10,221 ft / 3,116 m 47.05° 40.20° Asphalt 0 ft / 0 m 185 ft / 56 m
22 148 ft / 45 m 10,221 ft / 3,116 m 227.06° 220.21° Asphalt 0 ft / 0 m 185 ft / 56 m